Time;durP1;ratioP1;P1;durP2;ratioP2;P2;SDS_P1;SDS_P2;PMS_P1;PMS_P2;Temp;Humidity;BMP_temperature;BMP_pressure;BME280_temperature;BME280_humidity;BME280_pressure;Samples;Min_cycle;Max_cycle;Signal;HPM_P1;HPM_P2
2021/10/30 00:01:43;;;;;;;7.95;4.10;;;14.10;82.00;;;;;;5014171;28;20031;-78
2021/10/30 00:04:09;;;;;;;6.25;4.28;;;14.00;81.90;;;;;;5018501;28;20100;-79
2021/10/30 00:06:35;;;;;;;5.03;4.18;;;14.00;81.80;;;;;;5031205;28;20117;-78
2021/10/30 00:09:00;;;;;;;5.07;3.97;;;13.90;81.50;;;;;;5030673;28;20030;-73
2021/10/30 00:11:26;;;;;;;6.40;4.25;;;13.90;81.40;;;;;;5032094;28;20025;-73
2021/10/30 00:13:52;;;;;;;6.00;4.20;;;13.90;81.50;;;;;;5031851;28;20100;-73
2021/10/30 00:16:19;;;;;;;5.68;5.15;;;13.80;81.30;;;;;;5032412;28;20030;-72
2021/10/30 00:18:45;;;;;;;5.32;4.30;;;13.80;81.40;;;;;;5030451;28;20551;-72
2021/10/30 00:21:11;;;;;;;5.05;4.60;;;13.80;81.40;;;;;;5031718;28;20129;-72
2021/10/30 00:23:37;;;;;;;7.22;4.97;;;13.70;81.40;;;;;;5021562;28;20175;-73
2021/10/30 00:26:03;;;;;;;6.88;4.85;;;13.70;81.30;;;;;;5026991;28;20030;-72
2021/10/30 00:28:28;;;;;;;6.63;5.20;;;13.70;81.30;;;;;;5031543;28;20124;-72
2021/10/30 00:30:54;;;;;;;7.40;4.93;;;13.70;81.30;;;;;;5043129;28;20036;-72
2021/10/30 00:33:23;;;;;;;6.55;5.20;;;13.60;81.10;;;;;;5023903;28;20033;-73
2021/10/30 00:35:48;;;;;;;8.00;5.10;;;13.60;81.00;;;;;;5031546;28;20036;-73
2021/10/30 00:38:14;;;;;;;6.82;5.72;;;13.60;81.00;;;;;;5031624;28;20533;-72
2021/10/30 00:40:40;;;;;;;7.05;5.95;;;13.50;81.00;;;;;;5015531;28;20160;-78
2021/10/30 00:43:05;;;;;;;6.75;5.70;;;13.50;81.10;;;;;;5031778;28;20037;-78
2021/10/30 00:45:31;;;;;;;7.45;5.75;;;13.50;81.10;;;;;;5030294;28;20030;-79
2021/10/30 00:47:57;;;;;;;9.65;6.28;;;13.50;81.40;;;;;;5031720;28;20598;-79
2021/10/30 00:50:23;;;;;;;9.25;6.15;;;13.50;81.50;;;;;;5029593;28;20045;-73
2021/10/30 00:52:49;;;;;;;6.30;5.70;;;13.40;81.40;;;;;;5031628;28;20481;-79
2021/10/30 00:55:19;;;;;;;6.95;6.25;;;13.50;81.50;;;;;;5030734;28;20055;-79
2021/10/30 00:57:46;;;;;;;7.03;6.03;;;13.40;81.50;;;;;;5029840;28;20029;-78
2021/10/30 01:00:13;;;;;;;6.30;5.70;;;13.40;81.50;;;;;;5012468;28;20030;-79
2021/10/30 01:02:39;;;;;;;6.40;5.65;;;13.40;81.70;;;;;;5029528;28;20038;-73
2021/10/30 01:05:06;;;;;;;6.78;5.95;;;13.40;81.20;;;;;;5027767;28;20030;-78
2021/10/30 01:07:32;;;;;;;9.25;6.07;;;13.30;81.10;;;;;;5025634;28;20022;-78
2021/10/30 01:09:58;;;;;;;8.30;6.22;;;13.30;81.10;;;;;;5030433;28;20030;-78
2021/10/30 01:12:24;;;;;;;7.53;5.75;;;13.30;81.10;;;;;;5027522;28;20036;-78
2021/10/30 01:14:50;;;;;;;7.00;6.25;;;13.30;81.00;;;;;;5011743;28;20022;-79
2021/10/30 01:17:16;;;;;;;7.45;6.32;;;13.30;81.10;;;;;;5026581;28;20691;-78
2021/10/30 01:19:41;;;;;;;6.35;5.65;;;13.20;80.80;;;;;;5027095;28;20029;-78
2021/10/30 01:22:07;;;;;;;6.88;5.70;;;13.20;80.60;;;;;;5026688;28;20038;-73
2021/10/30 01:24:33;;;;;;;8.70;6.03;;;13.10;80.70;;;;;;5030339;28;20033;-78
2021/10/30 01:26:59;;;;;;;6.68;5.97;;;13.10;80.70;;;;;;5011192;28;20632;-78
2021/10/30 01:29:25;;;;;;;8.68;5.57;;;13.10;80.40;;;;;;5023448;28;20034;-78
2021/10/30 01:31:53;;;;;;;9.23;5.65;;;13.00;80.20;;;;;;5024399;28;20063;-79
2021/10/30 01:34:19;;;;;;;6.10;5.50;;;13.00;80.30;;;;;;5028576;28;20057;-73
2021/10/30 01:36:45;;;;;;;6.35;5.53;;;13.00;80.00;;;;;;5029695;28;20392;-73
2021/10/30 01:39:11;;;;;;;7.40;5.60;;;12.90;79.80;;;;;;5028976;28;20035;-72
2021/10/30 01:41:37;;;;;;;6.05;5.45;;;12.90;80.00;;;;;;5029186;28;20032;-77
2021/10/30 01:44:05;;;;;;;7.00;5.88;;;12.80;79.80;;;;;;5029618;28;20420;-78
2021/10/30 01:46:32;;;;;;;10.70;6.00;;;12.80;79.80;;;;;;5030850;28;20079;-79
2021/10/30 01:48:58;;;;;;;6.40;5.80;;;12.80;80.00;;;;;;5030037;28;20725;-78
2021/10/30 01:51:24;;;;;;;7.55;5.97;;;12.70;80.00;;;;;;5037479;28;20111;-78
2021/10/30 01:53:50;;;;;;;6.68;6.05;;;12.70;80.00;;;;;;5030357;28;20473;-78
2021/10/30 01:56:16;;;;;;;8.52;5.45;;;12.70;80.00;;;;;;5030658;28;20025;-73
2021/10/30 01:58:42;;;;;;;5.65;5.15;;;12.70;79.90;;;;;;5030021;28;20037;-79
2021/10/30 02:01:11;;;;;;;7.97;5.35;;;12.70;80.00;;;;;;5009475;28;20382;-74
2021/10/30 02:03:37;;;;;;;7.28;5.50;;;12.60;79.70;;;;;;5029545;28;20030;-73
2021/10/30 02:06:05;;;;;;;7.50;5.35;;;12.60;79.70;;;;;;5028550;28;20044;-74
2021/10/30 02:08:31;;;;;;;9.73;5.38;;;12.60;79.60;;;;;;5008044;28;20121;-73
2021/10/30 02:10:57;;;;;;;7.70;5.65;;;12.50;79.60;;;;;;5028105;28;20017;-77
2021/10/30 02:13:23;;;;;;;5.80;5.20;;;12.50;79.80;;;;;;5028057;28;20079;-78
2021/10/30 02:15:50;;;;;;;6.13;5.50;;;12.50;79.90;;;;;;5028499;28;20435;-77
2021/10/30 02:18:17;;;;;;;10.18;5.68;;;12.50;79.90;;;;;;5025352;28;20075;-78
2021/10/30 02:20:43;;;;;;;5.88;5.28;;;12.50;79.90;;;;;;5025431;28;20026;-78
2021/10/30 02:23:09;;;;;;;6.47;5.15;;;12.50;79.90;;;;;;5028014;28;20029;-79
2021/10/30 02:25:35;;;;;;;7.03;5.65;;;12.50;79.90;;;;;;5030184;28;20033;-77
2021/10/30 02:28:01;;;;;;;6.90;5.65;;;12.40;80.00;;;;;;5028448;28;20491;-78
2021/10/30 02:30:27;;;;;;;6.43;5.40;;;12.50;80.20;;;;;;5029038;28;20060;-74
2021/10/30 02:32:53;;;;;;;6.88;6.07;;;12.40;80.30;;;;;;5028380;28;20087;-73
2021/10/30 02:35:19;;;;;;;9.35;5.78;;;12.40;80.50;;;;;;5007822;28;20041;-74
2021/10/30 02:37:45;;;;;;;7.43;5.63;;;12.40;80.70;;;;;;5019622;28;20258;-74
2021/10/30 02:40:11;;;;;;;6.18;5.57;;;12.40;81.00;;;;;;5007986;28;20557;-71
2021/10/30 02:42:37;;;;;;;8.70;5.78;;;12.40;81.20;;;;;;5020018;28;20087;-72
2021/10/30 02:45:04;;;;;;;9.68;5.85;;;12.50;81.80;;;;;;5029403;28;20479;-72
2021/10/30 02:47:30;;;;;;;7.65;6.13;;;12.40;81.80;;;;;;5028372;28;20029;-73
2021/10/30 02:49:56;;;;;;;9.13;5.65;;;12.50;81.90;;;;;;5028910;28;20040;-74
2021/10/30 02:52:22;;;;;;;9.85;6.50;;;12.50;82.10;;;;;;5027577;28;20105;-78
2021/10/30 02:54:47;;;;;;;9.88;6.38;;;12.50;82.40;;;;;;5016923;28;20107;-78
2021/10/30 02:57:13;;;;;;;10.85;7.20;;;12.50;82.60;;;;;;5023342;28;20014;-78
2021/10/30 02:59:39;;;;;;;9.20;7.93;;;12.50;82.80;;;;;;5018171;28;20069;-78
2021/10/30 03:02:05;;;;;;;9.75;8.38;;;12.60;83.00;;;;;;5025534;28;20485;-78
2021/10/30 03:04:31;;;;;;;10.98;8.25;;;12.60;83.20;;;;;;5025915;28;20025;-77
2021/10/30 03:06:57;;;;;;;12.95;9.10;;;12.60;83.40;;;;;;5025993;28;20364;-78
2021/10/30 03:09:23;;;;;;;8.30;7.25;;;12.60;83.60;;;;;;5027454;28;20057;-78
2021/10/30 03:11:49;;;;;;;10.00;7.78;;;12.60;83.60;;;;;;5026597;28;20030;-79
2021/10/30 03:14:15;;;;;;;10.00;7.35;;;12.70;83.70;;;;;;5027306;28;20036;-78
2021/10/30 03:16:40;;;;;;;10.20;7.38;;;12.70;83.60;;;;;;5029053;28;20033;-79
2021/10/30 03:19:06;;;;;;;12.88;7.45;;;12.70;83.60;;;;;;5026302;28;20033;-78
2021/10/30 03:21:33;;;;;;;8.45;7.13;;;12.70;83.60;;;;;;5027671;28;20412;-73
2021/10/30 03:23:58;;;;;;;9.00;7.97;;;12.70;83.70;;;;;;5028370;28;20073;-78
2021/10/30 03:26:24;;;;;;;13.02;8.05;;;12.70;83.90;;;;;;5033318;28;20021;-79
2021/10/30 03:28:50;;;;;;;9.45;7.68;;;12.70;84.00;;;;;;5031919;28;20489;-77
2021/10/30 03:31:16;;;;;;;8.73;6.72;;;12.70;84.30;;;;;;5032005;28;20108;-72
2021/10/30 03:33:42;;;;;;;11.10;8.05;;;12.70;85.00;;;;;;5031843;28;20049;-73
2021/10/30 03:36:07;;;;;;;10.35;9.20;;;12.80;84.70;;;;;;5032146;28;20029;-73
2021/10/30 03:38:33;;;;;;;11.38;8.00;;;12.80;84.90;;;;;;5025748;28;20034;-73
2021/10/30 03:40:59;;;;;;;13.70;9.00;;;12.80;85.10;;;;;;5046118;28;20116;-72
2021/10/30 03:43:25;;;;;;;9.27;8.23;;;12.80;85.20;;;;;;5041593;28;20060;-78
2021/10/30 03:45:51;;;;;;;11.80;8.40;;;12.80;85.30;;;;;;5039504;28;20083;-73
2021/10/30 03:48:18;;;;;;;10.45;8.95;;;12.80;85.40;;;;;;5037978;28;20116;-73
2021/10/30 03:50:45;;;;;;;11.30;8.85;;;12.80;85.40;;;;;;5039101;28;20028;-78
2021/10/30 03:53:11;;;;;;;11.75;9.48;;;12.80;85.60;;;;;;5040743;28;20382;-78
2021/10/30 03:55:36;;;;;;;14.77;9.15;;;12.80;85.70;;;;;;5037853;28;20025;-78
2021/10/30 03:58:04;;;;;;;10.98;9.20;;;12.80;85.70;;;;;;5041705;28;20127;-73
2021/10/30 04:00:30;;;;;;;14.13;9.77;;;12.80;85.70;;;;;;5034935;28;20041;-73
2021/10/30 04:02:55;;;;;;;12.80;10.00;;;12.80;85.70;;;;;;5023492;28;20058;-72
2021/10/30 04:05:25;;;;;;;11.75;9.45;;;12.80;85.70;;;;;;5035821;28;20026;-73
2021/10/30 04:07:50;;;;;;;13.38;10.13;;;12.80;85.70;;;;;;5039402;28;20060;-78
2021/10/30 04:10:16;;;;;;;14.95;11.00;;;12.80;85.70;;;;;;5032260;28;20064;-72
2021/10/30 04:12:42;;;;;;;16.92;10.85;;;12.90;85.90;;;;;;5044788;28;20429;-73
2021/10/30 04:15:08;;;;;;;14.85;11.30;;;12.90;86.00;;;;;;5046697;28;20029;-73
2021/10/30 04:17:34;;;;;;;15.35;11.27;;;12.80;86.10;;;;;;5032687;28;20059;-78
2021/10/30 04:20:00;;;;;;;15.90;12.00;;;12.80;86.00;;;;;;5019848;28;20033;-78
2021/10/30 04:22:25;;;;;;;13.98;11.50;;;12.90;86.10;;;;;;5048938;28;20041;-73
2021/10/30 04:24:51;;;;;;;15.48;12.02;;;12.90;86.20;;;;;;5040208;28;20025;-73
2021/10/30 04:27:17;;;;;;;15.77;12.73;;;12.90;86.20;;;;;;5037838;28;20079;-73
2021/10/30 04:29:42;;;;;;;14.95;12.02;;;12.90;86.10;;;;;;5044745;28;20060;-74
2021/10/30 04:32:10;;;;;;;17.15;12.45;;;12.90;86.10;;;;;;5036321;28;20033;-74
2021/10/30 04:34:50;;;;;;;15.48;12.88;;;12.90;86.10;;;;;;5032465;28;20045;-77
2021/10/30 04:37:16;;;;;;;18.58;13.52;;;12.90;86.20;;;;;;5042358;28;20030;-73
2021/10/30 04:39:47;;;;;;;22.25;15.27;;;12.90;86.10;;;;;;5055270;28;20009;-78
2021/10/30 04:42:14;;;;;;;21.88;15.60;;;12.90;86.00;;;;;;5044542;28;20103;-78
2021/10/30 04:44:40;;;;;;;21.02;15.38;;;12.90;86.00;;;;;;5055567;28;20114;-74
2021/10/30 04:47:06;;;;;;;24.48;14.52;;;12.90;86.00;;;;;;5039317;28;21101;-73
2021/10/30 04:49:33;;;;;;;19.55;14.63;;;12.90;86.00;;;;;;5033377;28;20032;-73
2021/10/30 04:51:58;;;;;;;21.52;14.15;;;12.90;86.10;;;;;;5024574;28;20080;-78
2021/10/30 04:54:24;;;;;;;21.40;14.27;;;12.80;85.90;;;;;;5029986;28;20053;-78
2021/10/30 04:56:50;;;;;;;22.83;14.95;;;12.80;85.90;;;;;;5029393;28;20028;-78
2021/10/30 04:59:15;;;;;;;24.65;14.55;;;12.80;85.80;;;;;;5013717;28;20147;-79
2021/10/30 05:01:41;;;;;;;22.23;15.75;;;12.80;85.70;;;;;;5029099;28;20045;-79
2021/10/30 05:04:07;;;;;;;19.95;12.77;;;12.80;85.90;;;;;;5013335;28;20373;-79
2021/10/30 05:06:32;;;;;;;18.30;12.90;;;12.80;85.90;;;;;;5036573;28;20036;-79
2021/10/30 05:08:58;;;;;;;17.80;13.02;;;12.80;85.80;;;;;;5030929;28;20036;-79
2021/10/30 05:11:24;;;;;;;18.42;12.48;;;12.80;85.90;;;;;;5029189;28;20052;-73
2021/10/30 05:13:49;;;;;;;17.95;13.13;;;12.80;85.80;;;;;;5025656;28;20021;-73
2021/10/30 05:16:15;;;;;;;20.45;13.40;;;12.80;85.90;;;;;;5030509;28;20022;-74
2021/10/30 05:18:41;;;;;;;17.83;12.55;;;12.80;85.90;;;;;;5029705;28;20041;-73
2021/10/30 05:21:06;;;;;;;15.00;11.73;;;12.80;85.80;;;;;;5029817;28;20447;-78
2021/10/30 05:23:38;;;;;;;14.85;11.98;;;12.70;85.80;;;;;;5031647;28;20025;-79
2021/10/30 05:26:05;;;;;;;16.48;11.10;;;12.70;85.70;;;;;;5030270;28;20027;-74
2021/10/30 05:28:31;;;;;;;14.27;10.63;;;12.70;85.60;;;;;;5030752;28;20053;-74
2021/10/30 05:30:56;;;;;;;12.70;10.32;;;12.70;85.60;;;;;;5030498;28;20045;-74
2021/10/30 05:33:22;;;;;;;11.98;10.05;;;12.80;85.70;;;;;;5030812;28;20450;-79
2021/10/30 05:35:48;;;;;;;15.43;11.02;;;12.70;85.70;;;;;;4992584;28;20046;-79
2021/10/30 05:38:16;;;;;;;16.02;10.35;;;12.70;85.80;;;;;;5028853;28;20113;-73
2021/10/30 05:40:43;;;;;;;14.32;10.45;;;12.70;85.80;;;;;;5030110;28;20416;-74
2021/10/30 05:43:11;;;;;;;12.50;9.82;;;12.70;86.00;;;;;;5013501;28;20049;-73
2021/10/30 05:45:43;;;;;;;12.50;9.43;;;12.70;86.00;;;;;;5029024;28;20412;-74
2021/10/30 05:48:11;;;;;;;13.48;8.88;;;12.70;86.10;;;;;;5029842;28;20026;-73
2021/10/30 05:50:37;;;;;;;14.20;9.57;;;12.70;86.20;;;;;;5028272;28;20033;-74
2021/10/30 05:53:07;;;;;;;13.65;10.30;;;12.70;86.10;;;;;;5030280;28;20508;-73
2021/10/30 05:55:33;;;;;;;15.40;9.88;;;12.60;86.40;;;;;;5029225;28;20472;-73
2021/10/30 05:57:59;;;;;;;10.73;8.88;;;12.60;86.40;;;;;;5026051;28;20021;-74
2021/10/30 06:00:25;;;;;;;11.70;9.15;;;12.60;86.40;;;;;;5001685;28;20041;-74
2021/10/30 06:02:51;;;;;;;10.57;8.75;;;12.60;86.50;;;;;;5020184;28;20044;-73
2021/10/30 06:05:17;;;;;;;12.10;9.00;;;12.60;86.50;;;;;;5011755;28;20540;-74
2021/10/30 06:07:42;;;;;;;11.30;8.90;;;12.60;86.60;;;;;;5029424;28;20431;-73
2021/10/30 06:10:09;;;;;;;12.82;9.02;;;12.60;86.60;;;;;;5029609;28;20403;-73
2021/10/30 06:12:38;;;;;;;13.05;8.40;;;12.60;86.80;;;;;;5028564;28;20100;-73
2021/10/30 06:15:06;;;;;;;13.52;9.35;;;12.60;86.90;;;;;;5020222;28;20025;-73
2021/10/30 06:17:31;;;;;;;11.45;9.88;;;12.60;86.90;;;;;;5029882;28;20072;-74
2021/10/30 06:19:57;;;;;;;12.02;8.82;;;12.60;86.90;;;;;;5028361;28;20033;-73
2021/10/30 06:22:23;;;;;;;11.23;9.18;;;12.60;86.90;;;;;;5029803;28;20048;-73
2021/10/30 06:24:49;;;;;;;16.45;9.77;;;12.60;87.10;;;;;;5029412;28;20512;-74
2021/10/30 06:27:14;;;;;;;14.50;9.18;;;12.70;87.10;;;;;;5027962;28;20053;-72
2021/10/30 06:29:40;;;;;;;12.60;9.85;;;12.70;87.10;;;;;;5024157;28;20033;-74
2021/10/30 06:32:06;;;;;;;14.43;9.35;;;12.70;87.20;;;;;;5027925;28;20032;-72
2021/10/30 06:34:32;;;;;;;12.45;9.80;;;12.70;87.30;;;;;;5028723;28;20045;-72
2021/10/30 06:36:58;;;;;;;11.63;9.10;;;12.70;87.40;;;;;;5022106;28;20492;-75
2021/10/30 06:39:24;;;;;;;12.02;9.13;;;12.60;87.50;;;;;;5025400;28;20033;-72
2021/10/30 06:41:50;;;;;;;11.45;9.20;;;12.60;87.60;;;;;;5025814;28;20047;-72
2021/10/30 06:44:16;;;;;;;13.38;10.00;;;12.60;87.60;;;;;;5027003;28;20368;-73
2021/10/30 06:46:42;;;;;;;13.55;10.20;;;12.60;87.70;;;;;;5028608;28;20052;-73
2021/10/30 06:49:11;;;;;;;11.70;9.35;;;12.60;87.80;;;;;;5026846;28;20037;-72
2021/10/30 06:51:38;;;;;;;14.65;10.90;;;12.60;87.90;;;;;;5024611;28;20076;-72
2021/10/30 06:54:05;;;;;;;15.93;10.48;;;12.60;88.00;;;;;;5028308;28;20025;-72
2021/10/30 06:56:34;;;;;;;11.48;9.60;;;12.60;88.10;;;;;;5005549;28;20125;-72
2021/10/30 06:59:01;;;;;;;12.65;9.88;;;12.60;88.20;;;;;;5021765;28;20094;-73
2021/10/30 07:01:27;;;;;;;13.07;9.68;;;12.60;88.10;;;;;;5032418;28;20018;-72
2021/10/30 07:03:53;;;;;;;11.95;10.57;;;12.60;88.10;;;;;;5030679;28;20033;-72
2021/10/30 07:06:18;;;;;;;13.32;10.65;;;12.60;88.40;;;;;;5008779;28;20025;-73
2021/10/30 07:08:44;;;;;;;14.18;11.10;;;12.60;88.40;;;;;;5033190;28;20040;-73
2021/10/30 07:11:10;;;;;;;14.25;11.98;;;12.60;88.40;;;;;;5031841;28;20119;-73
2021/10/30 07:13:35;;;;;;;18.48;12.68;;;12.60;88.60;;;;;;5031929;28;20156;-77
2021/10/30 07:16:04;;;;;;;14.82;11.77;;;12.60;88.60;;;;;;5034535;28;20025;-78
2021/10/30 07:18:30;;;;;;;15.63;12.82;;;12.60;88.70;;;;;;5034944;28;20116;-78
2021/10/30 07:20:55;;;;;;;17.88;13.25;;;12.60;88.80;;;;;;5033986;28;20033;-77
2021/10/30 07:23:21;;;;;;;22.83;13.65;;;12.60;89.50;;;;;;5051084;28;20477;-78
2021/10/30 07:25:47;;;;;;;17.50;12.80;;;12.60;89.00;;;;;;5019198;28;20033;-77
2021/10/30 07:28:13;;;;;;;17.08;12.18;;;12.60;89.10;;;;;;5027664;28;20041;-77
2021/10/30 07:30:39;;;;;;;13.38;10.93;;;12.60;89.20;;;;;;5033739;28;20025;-78
2021/10/30 07:33:04;;;;;;;17.23;12.32;;;12.60;89.10;;;;;;5041564;28;20127;-72
2021/10/30 07:35:30;;;;;;;12.45;10.45;;;12.60;89.10;;;;;;5035318;28;20052;-72
2021/10/30 07:38:00;;;;;;;16.83;11.43;;;12.60;89.10;;;;;;5058536;28;20116;-77
2021/10/30 07:40:29;;;;;;;16.17;11.35;;;12.70;89.20;;;;;;5033599;28;20029;-77
2021/10/30 07:42:57;;;;;;;14.23;11.45;;;12.60;89.10;;;;;;5034329;28;20033;-77
2021/10/30 07:45:24;;;;;;;17.75;11.98;;;12.70;89.20;;;;;;5027333;28;20099;-72
2021/10/30 07:47:49;;;;;;;16.90;12.05;;;12.70;89.30;;;;;;5026261;28;20358;-73
2021/10/30 07:50:15;;;;;;;14.57;11.45;;;12.70;89.40;;;;;;5030732;28;20044;-77
2021/10/30 07:52:41;;;;;;;13.55;11.65;;;12.70;89.40;;;;;;5033124;28;20023;-72
2021/10/30 07:55:08;;;;;;;11.45;9.52;;;12.70;89.40;;;;;;5031918;28;20052;-71
2021/10/30 07:57:33;;;;;;;13.63;10.18;;;12.70;89.40;;;;;;5031854;28;20465;-72
2021/10/30 07:59:59;;;;;;;11.82;9.07;;;12.70;89.40;;;;;;5032029;28;20112;-72
2021/10/30 08:02:25;;;;;;;11.90;9.35;;;12.70;89.50;;;;;;5034116;28;20068;-77
2021/10/30 08:04:50;;;;;;;13.02;9.82;;;12.70;89.40;;;;;;5029365;28;20396;-72
2021/10/30 08:07:17;;;;;;;13.20;9.52;;;12.70;89.50;;;;;;5027550;28;20022;-77
2021/10/30 08:09:43;;;;;;;13.60;10.05;;;12.70;89.50;;;;;;5022671;28;20026;-72
2021/10/30 08:12:14;;;;;;;14.30;10.45;;;12.70;89.60;;;;;;5009720;28;20469;-77
2021/10/30 08:14:41;;;;;;;14.65;10.27;;;12.70;89.80;;;;;;5030246;28;20026;-72
2021/10/30 08:17:08;;;;;;;11.52;8.95;;;12.80;89.90;;;;;;5013536;28;20105;-73
2021/10/30 08:19:33;;;;;;;14.02;9.40;;;12.80;89.80;;;;;;5030350;28;20480;-77
2021/10/30 08:22:00;;;;;;;10.85;8.88;;;12.80;89.80;;;;;;5029872;28;20044;-73
2021/10/30 08:24:26;;;;;;;12.75;8.70;;;12.80;89.90;;;;;;5028664;28;20032;-73
2021/10/30 08:26:52;;;;;;;14.95;9.18;;;12.80;89.90;;;;;;5008706;28;20460;-73
2021/10/30 08:29:17;;;;;;;13.07;9.40;;;12.80;89.90;;;;;;5013077;28;20735;-74
2021/10/30 08:31:43;;;;;;;11.02;8.35;;;12.80;90.00;;;;;;5025958;28;20456;-74
2021/10/30 08:34:09;;;;;;;11.70;8.93;;;12.80;90.00;;;;;;5029455;28;20427;-74
2021/10/30 08:36:34;;;;;;;9.35;7.95;;;12.80;90.00;;;;;;5030302;28;20065;-74
2021/10/30 08:39:02;;;;;;;10.52;7.97;;;12.80;89.90;;;;;;5024946;28;20030;-74
2021/10/30 08:41:28;;;;;;;11.25;7.75;;;12.80;89.90;;;;;;5025420;28;20033;-74
2021/10/30 08:43:55;;;;;;;13.45;8.32;;;12.90;89.90;;;;;;5031442;28;20056;-74
2021/10/30 08:46:20;;;;;;;10.75;8.60;;;12.90;89.80;;;;;;5032114;28;20087;-78
2021/10/30 08:48:46;;;;;;;10.52;8.40;;;12.90;89.80;;;;;;5030211;28;20037;-74
2021/10/30 08:51:13;;;;;;;10.95;8.07;;;12.90;89.90;;;;;;5031197;28;20121;-74
2021/10/30 08:53:38;;;;;;;11.23;7.82;;;12.90;89.80;;;;;;5031749;28;20021;-78
2021/10/30 08:56:05;;;;;;;9.90;8.60;;;12.90;89.90;;;;;;5031948;28;20423;-74
2021/10/30 08:58:32;;;;;;;10.48;7.90;;;12.90;90.00;;;;;;5029957;28;20026;-74
2021/10/30 09:01:01;;;;;;;11.30;8.48;;;13.00;90.00;;;;;;5027384;28;20029;-72
2021/10/30 09:03:27;;;;;;;9.48;6.93;;;12.90;90.00;;;;;;5029974;28;20480;-73
2021/10/30 09:05:59;;;;;;;10.45;7.50;;;13.00;89.90;;;;;;5028468;28;20036;-74
2021/10/30 09:08:27;;;;;;;8.73;7.25;;;13.00;89.90;;;;;;5030962;28;20111;-77
2021/10/30 09:10:59;;;;;;;8.70;7.65;;;13.00;89.80;;;;;;5030630;28;20021;-78
2021/10/30 09:13:29;;;;;;;10.35;8.32;;;13.00;89.80;;;;;;5027798;28;20037;-78
2021/10/30 09:15:59;;;;;;;11.45;8.25;;;13.10;89.90;;;;;;5031483;28;20109;-79
2021/10/30 09:18:41;;;;;;;10.43;7.82;;;13.10;89.80;;;;;;5030528;28;20033;-74
2021/10/30 09:21:14;;;;;;;10.13;7.55;;;13.10;89.90;;;;;;5029121;28;20029;-78
2021/10/30 09:23:43;;;;;;;9.07;7.90;;;13.10;89.80;;;;;;5029371;28;20160;-79
2021/10/30 09:26:27;;;;;;;9.32;7.05;;;13.10;89.90;;;;;;5028565;28;20021;-74
2021/10/30 09:29:05;;;;;;;11.05;8.10;;;13.10;89.90;;;;;;5030230;28;20094;-74
2021/10/30 09:31:32;;;;;;;9.68;7.40;;;13.10;89.90;;;;;;5030167;28;20036;-74
2021/10/30 09:34:04;;;;;;;10.15;7.10;;;13.10;90.00;;;;;;5029841;28;20079;-79
2021/10/30 09:36:38;;;;;;;9.15;6.78;;;13.10;90.00;;;;;;5031954;28;20029;-75
2021/10/30 09:39:09;;;;;;;8.70;6.97;;;13.10;89.80;;;;;;5014078;28;20040;-75
2021/10/30 09:41:38;;;;;;;8.60;6.82;;;13.10;89.80;;;;;;5029938;28;20041;-74
2021/10/30 09:44:24;;;;;;;10.05;7.10;;;13.10;89.80;;;;;;5030289;28;20025;-79
2021/10/30 09:46:53;;;;;;;9.00;5.93;;;13.10;90.00;;;;;;5030624;28;20025;-79
2021/10/30 09:49:19;;;;;;;8.77;5.88;;;13.10;90.00;;;;;;5030303;28;20017;-80
2021/10/30 09:51:46;;;;;;;7.45;6.15;;;13.10;90.00;;;;;;5030758;28;20036;-79
2021/10/30 09:54:12;;;;;;;9.48;6.78;;;13.10;90.00;;;;;;5026639;28;20488;-73
2021/10/30 09:56:47;;;;;;;12.75;6.90;;;13.10;90.10;;;;;;5020178;28;20053;-73
2021/10/30 09:59:14;;;;;;;8.52;6.20;;;13.20;90.10;;;;;;5023363;28;20052;-74
2021/10/30 10:01:43;;;;;;;10.35;7.07;;;13.20;90.10;;;;;;5027833;28;20030;-79
2021/10/30 10:04:11;;;;;;;8.13;6.80;;;13.20;90.20;;;;;;5032392;28;20025;-79
2021/10/30 10:06:38;;;;;;;9.35;7.15;;;13.20;90.20;;;;;;5030387;28;20038;-75
2021/10/30 10:09:04;;;;;;;11.40;6.70;;;13.20;90.20;;;;;;5028006;28;20025;-80
2021/10/30 10:11:31;;;;;;;8.55;6.47;;;13.20;90.20;;;;;;5027976;28;20385;-73
2021/10/30 10:13:57;;;;;;;7.80;6.28;;;13.20;90.20;;;;;;5024612;28;20022;-74
2021/10/30 10:16:24;;;;;;;9.18;6.15;;;13.20;90.20;;;;;;5025310;28;20029;-74
2021/10/30 10:18:54;;;;;;;9.98;7.07;;;13.20;90.10;;;;;;5026856;28;20069;-81
2021/10/30 10:21:32;;;;;;;6.88;5.95;;;13.20;90.20;;;;;;5030990;28;20025;-81
2021/10/30 10:24:03;;;;;;;9.23;6.50;;;13.20;90.30;;;;;;5024872;28;20449;-79
2021/10/30 10:26:53;;;;;;;7.80;6.47;;;13.20;90.20;;;;;;5027145;28;20028;-73
2021/10/30 10:29:35;;;;;;;10.57;6.72;;;13.20;90.30;;;;;;5035289;28;20405;-79
2021/10/30 10:32:25;;;;;;;10.32;6.47;;;13.20;90.20;;;;;;5031477;28;20503;-80
2021/10/30 10:34:52;;;;;;;8.18;5.80;;;13.20;90.30;;;;;;5027172;28;20064;-73
2021/10/30 10:37:23;;;;;;;9.18;6.15;;;13.20;90.20;;;;;;5019220;28;20099;-80
2021/10/30 10:39:53;;;;;;;8.40;6.18;;;13.20;90.30;;;;;;5025059;28;20039;-79
2021/10/30 10:42:34;;;;;;;12.00;6.78;;;13.20;90.30;;;;;;5025001;28;20052;-78
2021/10/30 10:45:05;;;;;;;8.55;6.15;;;13.20;90.40;;;;;;5025780;28;20026;-77
2021/10/30 10:47:40;;;;;;;11.02;5.82;;;13.30;90.40;;;;;;5027397;28;20114;-79
2021/10/30 10:50:11;;;;;;;8.35;5.65;;;13.30;90.40;;;;;;5025391;28;20030;-80
2021/10/30 10:53:05;;;;;;;6.95;5.53;;;13.30;90.50;;;;;;5025483;28;20040;-73
2021/10/30 10:55:33;;;;;;;9.65;6.10;;;13.30;90.40;;;;;;5024064;28;20021;-73
2021/10/30 10:58:05;;;;;;;7.55;5.53;;;13.30;90.50;;;;;;5027332;28;20033;-72
2021/10/30 11:00:32;;;;;;;8.00;5.30;;;13.30;90.50;;;;;;5021912;28;20524;-74
2021/10/30 11:03:01;;;;;;;9.85;5.85;;;13.30;90.50;;;;;;5022817;28;20417;-73
2021/10/30 11:05:35;;;;;;;9.52;6.20;;;13.30;90.50;;;;;;5013624;28;20045;-74
2021/10/30 11:08:10;;;;;;;6.93;5.80;;;13.30;90.60;;;;;;5026522;28;20476;-74
2021/10/30 11:10:42;;;;;;;6.07;5.18;;;13.30;90.60;;;;;;5026472;28;20030;-73
2021/10/30 11:13:10;;;;;;;7.78;5.07;;;13.40;90.60;;;;;;5025305;28;20109;-73
2021/10/30 11:15:53;;;;;;;7.57;5.10;;;13.40;90.60;;;;;;5024388;28;20032;-73
2021/10/30 11:18:21;;;;;;;8.38;4.93;;;13.40;90.60;;;;;;5024111;28;20026;-74
2021/10/30 11:21:23;;;;;;;7.30;5.50;;;13.40;90.60;;;;;;5022306;28;20041;-74
2021/10/30 11:23:50;;;;;;;6.50;5.45;;;13.40;90.60;;;;;;5029298;28;20124;-74
2021/10/30 11:26:28;;;;;;;8.07;5.38;;;13.40;90.70;;;;;;5027081;28;20030;-74
2021/10/30 11:29:04;;;;;;;5.40;4.90;;;13.40;90.70;;;;;;5031732;28;20072;-75
2021/10/30 11:31:30;;;;;;;7.03;5.03;;;13.50;90.70;;;;;;5029469;28;20469;-81
2021/10/30 11:34:10;;;;;;;5.65;4.80;;;13.40;90.70;;;;;;5033223;28;20118;-81
2021/10/30 11:36:38;;;;;;;5.15;4.40;;;13.50;90.80;;;;;;5035727;28;20020;-80
2021/10/30 11:39:10;;;;;;;6.93;5.05;;;13.50;90.80;;;;;;5031671;28;20472;-81
2021/10/30 11:41:38;;;;;;;7.55;4.95;;;13.50;90.80;;;;;;5034747;28;20463;-81
2021/10/30 11:44:09;;;;;;;4.97;4.28;;;13.50;90.80;;;;;;5043990;28;20029;-81
2021/10/30 11:46:47;;;;;;;6.55;4.47;;;13.50;90.90;;;;;;5034275;28;20030;-80
2021/10/30 11:49:23;;;;;;;5.57;4.50;;;13.50;90.80;;;;;;5032614;28;20088;-80
2021/10/30 11:51:49;;;;;;;7.50;5.20;;;13.60;90.90;;;;;;5034200;28;20026;-80
2021/10/30 11:54:15;;;;;;;6.40;4.70;;;13.60;90.80;;;;;;5031230;28;20028;-74
2021/10/30 11:56:44;;;;;;;5.10;4.57;;;13.60;90.80;;;;;;5026821;28;20176;-74
2021/10/30 11:59:10;;;;;;;7.00;4.90;;;13.60;90.80;;;;;;5032508;28;20033;-74
2021/10/30 12:01:40;;;;;;;5.22;4.53;;;13.70;90.90;;;;;;5029955;28;20037;-74
2021/10/30 12:04:24;;;;;;;5.82;4.18;;;13.70;90.90;;;;;;5024731;28;20037;-74
2021/10/30 12:06:51;;;;;;;6.85;3.90;;;13.70;90.90;;;;;;5038447;28;20033;-73
2021/10/30 12:09:22;;;;;;;7.00;5.07;;;13.70;90.90;;;;;;5029911;28;20022;-74
2021/10/30 12:11:49;;;;;;;5.38;4.28;;;13.80;91.00;;;;;;5029662;28;20087;-74
2021/10/30 12:14:30;;;;;;;3.85;3.45;;;13.80;90.90;;;;;;5023586;28;20040;-74
2021/10/30 12:17:01;;;;;;;4.18;3.72;;;13.80;90.90;;;;;;5026526;28;20083;-74
2021/10/30 12:19:30;;;;;;;4.88;3.92;;;13.90;90.80;;;;;;5025728;28;20104;-82
2021/10/30 12:22:10;;;;;;;5.20;4.22;;;13.90;90.80;;;;;;5017093;28;20132;-80
2021/10/30 12:24:37;;;;;;;7.80;4.45;;;13.90;90.80;;;;;;5031134;28;20104;-78
2021/10/30 12:27:05;;;;;;;4.63;4.15;;;13.90;90.90;;;;;;5036995;28;20472;-79
2021/10/30 12:29:45;;;;;;;6.43;4.32;;;13.90;90.90;;;;;;5031023;28;20044;-79
2021/10/30 12:32:15;;;;;;;6.53;4.22;;;13.90;90.80;;;;;;5025824;28;20036;-79
2021/10/30 12:34:58;;;;;;;5.50;4.30;;;13.90;90.90;;;;;;5031467;28;20111;-79
2021/10/30 12:37:26;;;;;;;6.10;4.13;;;14.00;90.90;;;;;;5020861;28;20121;-73
2021/10/30 12:40:00;;;;;;;4.22;3.75;;;14.10;90.90;;;;;;5030327;28;20032;-73
2021/10/30 12:42:26;;;;;;;4.80;3.45;;;14.20;90.80;;;;;;5027969;28;20386;-73
2021/10/30 12:44:53;;;;;;;4.72;3.40;;;14.20;90.70;;;;;;5029718;28;20029;-74